createdAt,value
2022-09-14T00:01:14.653Z,72
2022-09-14T00:01:59.474Z,71.8
2022-09-14T00:03:00.599Z,71.9
2022-09-14T00:04:02.406Z,72.1
2022-09-14T00:05:03.400Z,72.2
2022-09-14T00:06:04.426Z,72.3
2022-09-14T00:07:05.373Z,72.4
2022-09-14T00:08:06.438Z,72.6
2022-09-14T00:09:07.366Z,72.9
2022-09-14T00:10:08.424Z,73
2022-09-14T00:11:09.374Z,73.2
2022-09-14T00:12:10.379Z,73.2
2022-09-14T00:13:11.444Z,73
2022-09-14T00:14:12.424Z,72.9
2022-09-14T00:15:13.393Z,72.7
2022-09-14T00:16:14.476Z,72.7
2022-09-14T00:17:15.375Z,72.6
2022-09-14T00:18:16.393Z,72.5
2022-09-14T00:19:17.479Z,72.6
2022-09-14T00:20:18.437Z,72.6
2022-09-14T00:21:19.414Z,72.4
2022-09-14T00:22:20.388Z,72.6
2022-09-14T00:23:21.412Z,72.7
2022-09-14T00:24:22.475Z,72.6
2022-09-14T00:25:23.412Z,72.7
2022-09-14T00:26:24.411Z,72.8
2022-09-14T00:27:25.419Z,73.1
2022-09-14T00:28:26.416Z,73.1
2022-09-14T00:29:27.445Z,73.1
2022-09-14T00:30:28.485Z,73
2022-09-14T00:31:29.482Z,72.8
2022-09-14T00:32:30.415Z,72.6
2022-09-14T00:33:31.417Z,72.6
2022-09-14T00:34:32.432Z,72.5
2022-09-14T00:35:33.454Z,72.4
2022-09-14T00:36:34.436Z,71.9
2022-09-14T00:37:35.456Z,71.5
2022-09-14T00:38:36.423Z,71.5
2022-09-14T00:39:37.436Z,71.7
2022-09-14T00:40:38.431Z,72
2022-09-14T00:41:39.453Z,72.3
2022-09-14T00:42:40.454Z,72.5
2022-09-14T00:43:41.453Z,72.8
2022-09-14T00:44:42.462Z,72.7
2022-09-14T00:45:43.522Z,72.6
2022-09-14T00:46:44.514Z,72.5
2022-09-14T00:47:45.447Z,72.4
2022-09-14T00:48:46.429Z,72.3
2022-09-14T00:49:47.436Z,72.3
2022-09-14T00:50:48.444Z,72.3
2022-09-14T00:51:49.477Z,71.9
2022-09-14T00:52:50.442Z,71.7
2022-09-14T00:53:51.515Z,71.7
2022-09-14T00:54:52.446Z,71.7
2022-09-14T00:55:53.521Z,71.8
2022-09-14T00:56:54.468Z,71.8
2022-09-14T00:57:55.483Z,71.9
2022-09-14T00:58:56.497Z,71.9
2022-09-14T00:59:57.567Z,71.8
2022-09-14T01:00:58.500Z,71.7
2022-09-14T01:01:59.532Z,71.6
2022-09-14T01:03:00.498Z,71.5
2022-09-14T01:04:01.602Z,71.6
2022-09-14T01:05:03.631Z,71.6
2022-09-14T01:06:05.537Z,71.8
2022-09-14T01:07:06.500Z,72
2022-09-14T01:08:07.496Z,72
2022-09-14T01:09:08.524Z,72.1
2022-09-14T01:10:09.499Z,72.3
2022-09-14T01:11:10.488Z,72.3
2022-09-14T01:12:11.500Z,72.3
2022-09-14T01:13:12.491Z,72.4
2022-09-14T01:14:13.647Z,72.5
2022-09-14T01:15:15.528Z,72.6
2022-09-14T01:16:16.604Z,72.6
2022-09-14T01:17:17.492Z,72.7
2022-09-14T01:18:18.517Z,72.4
2022-09-14T01:19:19.528Z,72.3
2022-09-14T01:20:20.491Z,72.1
2022-09-14T01:21:21.512Z,71.9
2022-09-14T01:22:22.540Z,71.7
2022-09-14T01:23:23.500Z,71.8
2022-09-14T01:24:24.520Z,71.8
2022-09-14T01:25:25.503Z,71.9
2022-09-14T01:26:26.513Z,72
2022-09-14T01:27:27.488Z,72.2
2022-09-14T01:28:28.542Z,72.2
2022-09-14T01:29:29.537Z,72.3
2022-09-14T01:30:30.566Z,72.3
2022-09-14T01:31:31.574Z,72.2
2022-09-14T01:32:32.524Z,72.1
2022-09-14T01:33:33.518Z,72.1
2022-09-14T01:34:34.571Z,72.2
2022-09-14T01:35:35.519Z,72.1
2022-09-14T01:36:36.527Z,72.3
2022-09-14T01:37:37.544Z,72.3
2022-09-14T01:38:38.548Z,72.3
2022-09-14T01:39:39.601Z,72.2
2022-09-14T01:40:40.531Z,72.2
2022-09-14T01:41:41.525Z,72.1
2022-09-14T01:42:42.529Z,72
2022-09-14T01:43:43.533Z,72
2022-09-14T01:44:44.596Z,71.9
2022-09-14T01:45:45.572Z,71.9
2022-09-14T01:46:46.536Z,71.8
2022-09-14T01:47:47.531Z,71.7
2022-09-14T01:48:48.531Z,71.6
2022-09-14T01:49:49.560Z,71.6
2022-09-14T01:50:50.617Z,71.8
2022-09-14T01:51:51.561Z,71.9
2022-09-14T01:52:52.546Z,71.9
2022-09-14T01:53:53.562Z,72.1
2022-09-14T01:54:54.540Z,72.2
2022-09-14T01:55:55.607Z,72.2
2022-09-14T01:56:56.565Z,72.3
2022-09-14T01:57:57.533Z,72.6
2022-09-14T01:58:58.621Z,72.9
2022-09-14T01:59:59.621Z,72.9
2022-09-14T02:01:00.794Z,73
2022-09-14T02:02:01.807Z,73
2022-09-14T02:03:03.556Z,73.2
2022-09-14T02:04:04.564Z,73
2022-09-14T02:05:05.586Z,73.1
2022-09-14T02:06:06.583Z,72.9
2022-09-14T02:07:07.570Z,72.8
2022-09-14T02:08:08.561Z,72.7
2022-09-14T02:09:09.601Z,72.6
2022-09-14T02:10:10.621Z,72.4
2022-09-14T02:11:11.622Z,72.2
2022-09-14T02:12:12.596Z,72.2
2022-09-14T02:13:13.572Z,72.1
2022-09-14T02:14:14.569Z,72.2
2022-09-14T02:15:15.626Z,72.5
2022-09-14T02:16:16.676Z,72.7
2022-09-14T02:17:17.586Z,72.6
2022-09-14T02:18:18.643Z,72.6
2022-09-14T02:19:23.634Z,72.5
2022-09-14T02:20:20.582Z,72.5
2022-09-14T02:21:21.607Z,72.4
2022-09-14T02:22:22.630Z,72.2
2022-09-14T02:23:23.615Z,71.9
2022-09-14T02:24:24.603Z,71.8
2022-09-14T02:25:25.632Z,72
2022-09-14T02:26:26.627Z,72.2
2022-09-14T02:27:27.626Z,72.3
2022-09-14T02:28:28.619Z,72.2
2022-09-14T02:29:29.605Z,72.2
2022-09-14T02:30:30.682Z,72.3
2022-09-14T02:31:31.733Z,72.3
2022-09-14T02:32:32.667Z,72.2
2022-09-14T02:33:33.617Z,72.3
2022-09-14T02:34:34.660Z,72.3
2022-09-14T02:35:35.700Z,72.2
2022-09-14T02:36:36.647Z,72.2
2022-09-14T02:37:37.614Z,72.2
2022-09-14T02:38:38.622Z,72.1
2022-09-14T02:39:39.610Z,72.2
2022-09-14T02:40:40.682Z,72.5
2022-09-14T02:41:41.606Z,72.6
2022-09-14T02:42:42.670Z,72.9
2022-09-14T02:43:43.717Z,73.2
2022-09-14T02:44:44.611Z,73.3
2022-09-14T02:45:45.679Z,73.5
2022-09-14T02:46:46.729Z,73.5
2022-09-14T02:47:47.625Z,73.5
2022-09-14T02:48:48.644Z,73.4
2022-09-14T02:49:49.628Z,73.6
2022-09-14T02:50:50.687Z,73.8
2022-09-14T02:51:51.676Z,73.9
2022-09-14T02:52:52.686Z,74.1
2022-09-14T02:53:53.678Z,74.4
2022-09-14T02:54:54.644Z,74.5
2022-09-14T02:55:55.624Z,74.5
2022-09-14T02:56:56.659Z,75
2022-09-14T02:57:57.681Z,75.5
2022-09-14T02:58:58.639Z,75.6
2022-09-14T02:59:59.652Z,75.6
2022-09-14T03:01:00.709Z,75.2
2022-09-14T03:02:02.001Z,75.3
2022-09-14T03:03:03.677Z,75
2022-09-14T03:04:04.651Z,74.8
2022-09-14T03:05:05.638Z,75.1
2022-09-14T03:06:06.657Z,75.3
2022-09-14T03:07:07.702Z,75.3
2022-09-14T03:08:08.677Z,75.2
2022-09-14T03:09:09.722Z,75.3
2022-09-14T03:10:10.678Z,75.3
2022-09-14T03:11:11.708Z,75.3
2022-09-14T03:12:12.674Z,75.3
2022-09-14T03:13:13.663Z,75
2022-09-14T03:14:14.691Z,75.1
2022-09-14T03:15:15.694Z,75.1
2022-09-14T03:16:16.775Z,75
2022-09-14T03:17:17.683Z,75
2022-09-14T03:18:18.687Z,75
2022-09-14T03:19:19.673Z,74.9
2022-09-14T03:20:20.678Z,74.8
2022-09-14T03:21:21.726Z,74.7
2022-09-14T03:22:22.696Z,74.8
2022-09-14T03:23:23.696Z,74.7
2022-09-14T03:24:24.689Z,74.8
2022-09-14T03:25:25.692Z,74.8
2022-09-14T03:26:26.726Z,74.9
2022-09-14T03:27:27.700Z,75.1
2022-09-14T03:28:28.705Z,75.4
2022-09-14T03:29:29.700Z,75.5
2022-09-14T03:30:30.743Z,75.7
2022-09-14T03:31:34.702Z,75.6
2022-09-14T03:32:35.734Z,75.7
2022-09-14T03:33:36.695Z,75.8
2022-09-14T03:34:37.727Z,75.9
2022-09-14T03:35:38.699Z,76
2022-09-14T03:36:39.801Z,75.8
2022-09-14T03:37:41.746Z,75.8
2022-09-14T03:38:42.792Z,75.6
2022-09-14T03:39:43.726Z,75.2
2022-09-14T03:40:44.712Z,75
2022-09-14T03:41:45.707Z,74.7
2022-09-14T03:42:46.711Z,74.7
2022-09-14T03:43:47.808Z,74.5
2022-09-14T03:44:48.724Z,74.5
2022-09-14T03:45:49.734Z,74.5
2022-09-14T03:46:50.796Z,74.4
2022-09-14T03:47:51.843Z,74.3
2022-09-14T03:48:52.748Z,74.1
2022-09-14T03:49:53.724Z,73.9
2022-09-14T03:50:54.733Z,73.8
2022-09-14T03:51:59.602Z,73.8
2022-09-14T03:52:56.730Z,73.8
2022-09-14T03:53:57.743Z,73.7
2022-09-14T03:54:58.735Z,73.7
2022-09-14T03:55:59.754Z,73.7
2022-09-14T03:57:00.785Z,73.6
2022-09-14T03:58:01.839Z,73.7
2022-09-14T03:59:03.748Z,73.5
2022-09-14T04:00:04.949Z,73.5
2022-09-14T04:01:06.736Z,73.6
2022-09-14T04:02:07.872Z,73.6
2022-09-14T04:03:08.811Z,73.8
2022-09-14T04:04:09.811Z,74.1
2022-09-14T04:05:10.787Z,74.2
2022-09-14T04:06:11.743Z,74.5
2022-09-14T04:07:12.755Z,74.5
2022-09-14T04:08:13.759Z,74.6
2022-09-14T04:09:14.948Z,74.7
2022-09-14T04:10:16.778Z,74.9
2022-09-14T04:11:17.760Z,75.3
2022-09-14T04:12:18.789Z,75.5
2022-09-14T04:13:20.866Z,75.4
2022-09-14T04:14:22.757Z,75.1
2022-09-14T04:15:23.827Z,75.2
2022-09-14T04:16:24.889Z,74.9
2022-09-14T04:17:25.807Z,74.8
2022-09-14T04:18:26.804Z,74.6
2022-09-14T04:19:27.754Z,74.3
2022-09-14T04:20:28.820Z,74.3
2022-09-14T04:21:30.036Z,74.3
2022-09-14T04:22:31.807Z,74.5
2022-09-14T04:23:32.796Z,74.7
2022-09-14T04:24:33.812Z,74.8
2022-09-14T04:25:34.797Z,74.9
2022-09-14T04:26:35.783Z,75.4
2022-09-14T04:27:36.816Z,75.8
2022-09-14T04:28:37.774Z,75.8
2022-09-14T04:29:38.797Z,75.9
2022-09-14T04:30:39.840Z,76.4
2022-09-14T04:31:40.902Z,76.3
2022-09-14T04:32:41.881Z,76.4
2022-09-14T04:33:42.813Z,76.5
2022-09-14T04:34:43.782Z,76.6
2022-09-14T04:35:44.813Z,76.6
2022-09-14T04:36:45.799Z,76.6
2022-09-14T04:37:46.860Z,76.7
2022-09-14T04:38:47.802Z,76.6
2022-09-14T04:39:48.875Z,76.6
2022-09-14T04:40:50.781Z,76.3
2022-09-14T04:41:51.826Z,76.1
2022-09-14T04:42:52.876Z,76
2022-09-14T04:43:53.814Z,76.1
2022-09-14T04:44:54.854Z,76.1
2022-09-14T04:45:55.854Z,76.2
2022-09-14T04:46:56.842Z,76.3
2022-09-14T04:47:57.839Z,76.4
2022-09-14T04:48:58.833Z,76.5
2022-09-14T04:49:59.854Z,76.8
2022-09-14T04:51:00.817Z,77.3
2022-09-14T04:52:02.005Z,77.7
2022-09-14T04:53:03.803Z,77.8
2022-09-14T04:54:04.860Z,77.7
2022-09-14T04:55:05.855Z,77.6
2022-09-14T04:56:06.811Z,77.3
2022-09-14T04:57:07.820Z,77.1
2022-09-14T04:58:08.841Z,76.9
2022-09-14T04:59:10.967Z,76.5
2022-09-14T05:00:12.865Z,76.3
2022-09-14T05:01:13.823Z,76.1
2022-09-14T05:02:15.112Z,76.2
2022-09-14T05:03:16.964Z,76.4
2022-09-14T05:04:17.868Z,76.4
2022-09-14T05:05:18.873Z,76.3
2022-09-14T05:06:19.897Z,76.3
2022-09-14T05:07:20.826Z,76.4
2022-09-14T05:08:21.853Z,76.5
2022-09-14T05:09:22.923Z,76.6
2022-09-14T05:10:23.838Z,76.2
2022-09-14T05:11:25.151Z,76.1
2022-09-14T05:12:26.853Z,76.1
2022-09-14T05:13:27.850Z,75.9
2022-09-14T05:14:28.857Z,75.6
2022-09-14T05:15:29.848Z,75.3
2022-09-14T05:16:30.901Z,75
2022-09-14T05:17:31.868Z,74.7
2022-09-14T05:18:32.872Z,74.7
2022-09-14T05:19:33.895Z,74.6
2022-09-14T05:20:34.873Z,74.4
2022-09-14T05:21:35.871Z,74.2
2022-09-14T05:22:36.877Z,74.1
2022-09-14T05:23:37.855Z,73.9
2022-09-14T05:24:38.895Z,73.6
2022-09-14T05:25:40.102Z,73.4
2022-09-14T05:26:41.919Z,72.8
2022-09-14T05:27:42.874Z,72.2
2022-09-14T05:28:43.892Z,71.6
2022-09-14T05:29:44.877Z,71.3
2022-09-14T05:30:45.992Z,71.1
2022-09-14T05:31:46.937Z,71.4
2022-09-14T05:32:47.891Z,71.7
2022-09-14T05:33:49.031Z,72.2
2022-09-14T05:34:49.961Z,72.3
2022-09-14T05:35:50.928Z,72.3
2022-09-14T05:36:51.893Z,72.4
2022-09-14T05:37:52.922Z,72.8
2022-09-14T05:38:53.902Z,73.3
2022-09-14T05:39:55.178Z,74
2022-09-14T05:40:56.944Z,74.7
2022-09-14T05:41:57.898Z,75.2
2022-09-14T05:42:58.912Z,75.4
2022-09-14T05:43:59.902Z,75.5
2022-09-14T05:45:00.928Z,75.5
2022-09-14T05:46:02.089Z,75.8
2022-09-14T05:47:02.947Z,75.8
2022-09-14T05:48:03.950Z,76
2022-09-14T05:49:04.981Z,75.9
2022-09-14T05:50:05.963Z,75.8
2022-09-14T05:51:06.960Z,75.9
2022-09-14T05:52:07.895Z,76.1
2022-09-14T05:53:08.903Z,76.4
2022-09-14T05:54:09.948Z,76.8
2022-09-14T05:55:10.900Z,77.2
2022-09-14T05:56:11.930Z,77.5
2022-09-14T05:57:12.942Z,77.5
2022-09-14T05:58:13.924Z,77.2
2022-09-14T05:59:14.966Z,77.3
2022-09-14T06:00:15.985Z,77.3
2022-09-14T06:01:16.975Z,77.2
2022-09-14T06:02:18.436Z,77.3
2022-09-14T06:03:18.920Z,77
2022-09-14T06:04:19.987Z,77.1
2022-09-14T06:05:21.095Z,76.9
2022-09-14T06:06:21.940Z,76.6
2022-09-14T06:07:22.951Z,76.7
2022-09-14T06:08:24.694Z,76.7
2022-09-14T06:09:28.019Z,76.8
2022-09-14T06:10:27.879Z,76.5
2022-09-14T06:11:28.933Z,76
2022-09-14T06:12:29.937Z,75.7
2022-09-14T06:13:31.021Z,75.5
2022-09-14T06:14:31.964Z,75.7
2022-09-14T06:15:32.960Z,75.6
2022-09-14T06:16:34.023Z,75.5
2022-09-14T06:17:34.965Z,75.3
2022-09-14T06:18:35.938Z,75.1
2022-09-14T06:19:36.949Z,74.6
2022-09-14T06:20:38.021Z,74.3
2022-09-14T06:21:39.014Z,74.2
2022-09-14T06:22:39.995Z,74.1
2022-09-14T06:23:40.974Z,74.3
2022-09-14T06:24:42.026Z,74.8
2022-09-14T06:25:42.967Z,74.7
2022-09-14T06:26:44.042Z,74.4
2022-09-14T06:27:44.999Z,74.2
2022-09-14T06:28:45.967Z,74
2022-09-14T06:29:47.108Z,73.7
2022-09-14T06:30:48.991Z,73.4
2022-09-14T06:31:50.046Z,73.4
2022-09-14T06:32:50.957Z,73.2
2022-09-14T06:33:51.985Z,73
2022-09-14T06:34:53.044Z,72.9
2022-09-14T06:35:53.989Z,72.7
2022-09-14T06:36:55.041Z,72.5
2022-09-14T06:37:56.055Z,72.2
2022-09-14T06:38:57.006Z,72
2022-09-14T06:39:58.091Z,71.5
2022-09-14T06:40:59.027Z,71.1
2022-09-14T06:42:00.001Z,70.8
2022-09-14T06:43:01.023Z,70.3
2022-09-14T06:44:02.155Z,69.5
2022-09-14T06:45:04.058Z,68.1
2022-09-14T06:46:05.038Z,67.3
2022-09-14T06:47:06.073Z,67.3
2022-09-14T06:48:08.132Z,67.2
2022-09-14T06:49:10.021Z,67.3
2022-09-14T06:50:11.006Z,66.8
2022-09-14T06:51:12.104Z,66.7
2022-09-14T06:52:13.085Z,66
2022-09-14T06:53:14.113Z,65.6
2022-09-14T06:54:16.094Z,65.5
2022-09-14T06:55:17.074Z,66.1
2022-09-14T06:56:18.160Z,66.5
2022-09-14T06:57:21.055Z,66.1
2022-09-14T06:58:22.628Z,66.1
2022-09-14T06:59:24.050Z,66.2
2022-09-14T07:00:25.104Z,66.3
2022-09-14T07:01:26.336Z,66.3
2022-09-14T07:02:28.161Z,66.5
2022-09-14T07:03:29.035Z,67
2022-09-14T07:04:30.062Z,67.4
2022-09-14T07:05:31.071Z,68.2
2022-09-14T07:06:32.139Z,68.4
2022-09-14T07:07:33.058Z,68.5
2022-09-14T07:08:34.038Z,68.2
2022-09-14T07:09:36.078Z,67.9
2022-09-14T07:10:37.159Z,68.1
2022-09-14T07:11:39.077Z,68.3
2022-09-14T07:12:40.085Z,68.6
2022-09-14T07:13:41.042Z,68.4
2022-09-14T07:14:43.090Z,68.3
2022-09-14T07:15:44.381Z,67.9
2022-09-14T07:16:46.039Z,67.6
2022-09-14T07:17:47.152Z,67.2
2022-09-14T07:18:48.082Z,66.8
2022-09-14T07:19:49.086Z,67.1
2022-09-14T07:20:50.191Z,67.6
2022-09-14T07:21:52.303Z,67.8
2022-09-14T07:22:54.100Z,67.3
2022-09-14T07:23:55.087Z,67.2
2022-09-14T07:24:56.072Z,67.1
2022-09-14T07:25:57.062Z,67.7
2022-09-14T07:26:58.049Z,68.1
2022-09-14T07:27:59.684Z,67.9
2022-09-14T07:29:01.088Z,67.9
2022-09-14T07:30:02.181Z,67.6
2022-09-14T07:31:03.461Z,67.5
2022-09-14T07:32:05.361Z,66.9
2022-09-14T07:33:07.083Z,66.5
2022-09-14T07:34:08.065Z,65.5
2022-09-14T07:35:09.136Z,65.1
2022-09-14T07:36:10.104Z,65.6
2022-09-14T07:37:11.186Z,65.8
2022-09-14T07:38:12.112Z,66.3
2022-09-14T07:39:13.091Z,66.2
2022-09-14T07:40:14.695Z,66.2
2022-09-14T07:41:16.266Z,65.7
2022-09-14T07:42:18.129Z,65.4
2022-09-14T07:43:19.305Z,65.3
2022-09-14T07:44:21.285Z,65.7
2022-09-14T07:45:23.180Z,65.3
2022-09-14T07:46:24.411Z,64.8
2022-09-14T07:47:26.090Z,64.5
2022-09-14T07:48:27.259Z,64.1
2022-09-14T07:49:29.141Z,63.7
2022-09-14T07:50:30.163Z,63
2022-09-14T07:51:31.107Z,62
2022-09-14T07:52:35.602Z,61.2
2022-09-14T07:53:33.378Z,61.4
2022-09-14T07:54:35.110Z,61.7
2022-09-14T07:55:36.441Z,62.1
2022-09-14T07:56:38.187Z,62.2
2022-09-14T07:57:54.918Z,62.5
2022-09-14T07:58:40.144Z,62.3
2022-09-14T07:59:42.152Z,62.4
2022-09-14T08:00:43.201Z,61.6
2022-09-14T08:01:44.361Z,61.4
2022-09-14T08:02:45.155Z,62
2022-09-14T08:03:46.159Z,62.1
2022-09-14T08:04:47.203Z,62.6
2022-09-14T08:05:48.213Z,62.7
2022-09-14T08:06:49.127Z,62.8
2022-09-14T08:07:50.139Z,62.6
2022-09-14T08:08:51.345Z,62.3
2022-09-14T08:09:53.140Z,62
2022-09-14T08:10:54.236Z,61.7
2022-09-14T08:11:56.217Z,61.1
2022-09-14T08:12:57.148Z,60.7
2022-09-14T08:13:58.148Z,59.5
2022-09-14T08:14:59.217Z,59
2022-09-14T08:16:00.180Z,58.7
2022-09-14T08:17:01.245Z,58.6
2022-09-14T08:18:02.186Z,59.3
2022-09-14T08:19:03.182Z,59.4
2022-09-14T08:20:04.178Z,59.1
2022-09-14T08:21:05.322Z,58.9
2022-09-14T08:22:07.170Z,59.1
2022-09-14T08:23:08.219Z,58.8
2022-09-14T08:24:09.295Z,58.9
2022-09-14T08:25:11.188Z,58.9
2022-09-14T08:26:12.203Z,58.3
2022-09-14T08:27:16.618Z,58.7
2022-09-14T08:28:14.219Z,59.1
2022-09-14T08:29:15.186Z,59.4
2022-09-14T08:30:16.285Z,59.5
2022-09-14T08:31:18.252Z,58.7
2022-09-14T08:32:19.180Z,58.3
2022-09-14T08:33:20.195Z,58.2
2022-09-14T08:34:21.160Z,58.3
2022-09-14T08:35:35.618Z,58.6
2022-09-14T08:36:23.211Z,59
2022-09-14T08:37:24.211Z,59.8
2022-09-14T08:38:25.312Z,59.5
2022-09-14T08:39:26.236Z,58.8
2022-09-14T08:40:27.277Z,58.6
2022-09-14T08:41:28.213Z,58.9
2022-09-14T08:42:29.214Z,58.8
2022-09-14T08:43:30.192Z,58.6
2022-09-14T08:44:31.215Z,58.2
2022-09-14T08:45:32.368Z,57.9
2022-09-14T08:46:34.258Z,57.7
2022-09-14T08:47:35.221Z,56.5
2022-09-14T08:48:36.236Z,56.4
2022-09-14T08:49:37.204Z,56.5
2022-09-14T08:50:38.936Z,57
2022-09-14T08:51:39.413Z,57.6
2022-09-14T08:52:41.194Z,58.5
2022-09-14T08:53:42.270Z,58.8
2022-09-14T08:54:43.283Z,58.8
2022-09-14T08:55:44.202Z,58.9
2022-09-14T08:56:45.263Z,59
2022-09-14T08:57:46.250Z,59.3
2022-09-14T08:58:48.499Z,59.3
2022-09-14T08:59:48.254Z,59.8
2022-09-14T09:00:49.282Z,59.4
2022-09-14T09:01:50.789Z,59.1
2022-09-14T09:02:52.228Z,58.9
2022-09-14T09:03:53.261Z,58.4
2022-09-14T09:04:54.233Z,58.4
2022-09-14T09:05:55.245Z,58
2022-09-14T09:06:56.386Z,58.1
2022-09-14T09:07:58.224Z,57.3
2022-09-14T09:08:59.365Z,57.5
2022-09-14T09:10:00.241Z,57.4
2022-09-14T09:11:01.273Z,57.6
2022-09-14T09:12:02.474Z,57.5
2022-09-14T09:13:04.307Z,57
2022-09-14T09:14:05.310Z,57
2022-09-14T09:15:06.327Z,57
2022-09-14T09:16:07.305Z,57.1
2022-09-14T09:17:09.310Z,57.1
2022-09-14T09:18:10.374Z,57.1
2022-09-14T09:19:12.259Z,56.9
2022-09-14T09:20:13.394Z,57.6
2022-09-14T09:21:15.248Z,57.7
2022-09-14T09:22:16.526Z,57.2
2022-09-14T09:23:18.268Z,55.9
2022-09-14T09:24:19.411Z,55
2022-09-14T09:25:20.286Z,54.1
2022-09-14T09:26:21.278Z,53.4
2022-09-14T09:27:22.333Z,53.7
2022-09-14T09:28:23.397Z,53.4
2022-09-14T09:29:25.260Z,53.1
2022-09-14T09:30:26.314Z,52.9
2022-09-14T09:31:27.349Z,52.6
2022-09-14T09:32:28.254Z,52.1
2022-09-14T09:33:29.806Z,51.9
2022-09-14T09:34:31.307Z,51.8
2022-09-14T09:35:32.308Z,52.4
2022-09-14T09:36:33.263Z,53.3
2022-09-14T09:37:34.280Z,54
2022-09-14T09:38:35.339Z,54.4
2022-09-14T09:39:36.331Z,54.4
2022-09-14T09:40:37.314Z,54.2
2022-09-14T09:41:38.353Z,54
2022-09-14T09:42:39.287Z,53.8
2022-09-14T09:43:49.144Z,53.5
2022-09-14T09:44:41.317Z,53.2
2022-09-14T09:45:42.418Z,53.2
2022-09-14T09:46:44.327Z,53.3
2022-09-14T09:47:45.324Z,53.2
2022-09-14T09:48:46.382Z,53
2022-09-14T09:49:47.332Z,53
2022-09-14T09:50:48.322Z,53.5
2022-09-14T09:51:49.365Z,53.4
2022-09-14T09:52:50.319Z,53.2
2022-09-14T09:53:51.416Z,53.4
2022-09-14T09:54:52.331Z,53.9
2022-09-14T09:55:53.294Z,54.3
2022-09-14T09:56:54.334Z,54.4
2022-09-14T09:57:55.302Z,54.6
2022-09-14T09:58:56.339Z,54.5
2022-09-14T09:59:57.361Z,54.3
2022-09-14T10:00:58.399Z,54.2
2022-09-14T10:01:59.380Z,54.3
2022-09-14T10:03:00.321Z,54.4
2022-09-14T10:04:01.344Z,54.7
2022-09-14T10:05:02.540Z,55
2022-09-14T10:06:04.501Z,55.4
2022-09-14T10:07:06.339Z,55.8
2022-09-14T10:08:11.355Z,55.6
2022-09-14T10:09:08.358Z,55.4
2022-09-14T10:10:09.496Z,55.5
2022-09-14T10:11:10.382Z,55.4
2022-09-14T10:12:11.350Z,55.2
2022-09-14T10:13:12.328Z,55.4
2022-09-14T10:14:13.334Z,55.3
2022-09-14T10:15:14.440Z,54.9
2022-09-14T10:16:15.397Z,54.6
2022-09-14T10:17:16.349Z,55
2022-09-14T10:18:17.361Z,55.5
2022-09-14T10:19:18.335Z,55.3
2022-09-14T10:20:19.398Z,54.6
2022-09-14T10:21:20.367Z,54.3
2022-09-14T10:22:25.767Z,54.2
2022-09-14T10:23:22.335Z,54.3
2022-09-14T10:24:23.438Z,54.3
2022-09-14T10:25:24.415Z,55
2022-09-14T10:26:25.385Z,55.6
2022-09-14T10:27:26.387Z,55.8
2022-09-14T10:28:27.410Z,55.4
2022-09-14T10:29:28.367Z,55.4
2022-09-14T10:30:29.393Z,55.3
2022-09-14T10:31:30.435Z,55.4
2022-09-14T10:32:31.381Z,55.6
2022-09-14T10:33:32.384Z,55.9
2022-09-14T10:34:33.452Z,56.3
2022-09-14T10:35:34.579Z,56.9
2022-09-14T10:36:36.379Z,57
2022-09-14T10:37:37.388Z,57.5
2022-09-14T10:38:38.413Z,57.9
2022-09-14T10:39:39.476Z,58.2
2022-09-14T10:40:40.525Z,58.2
2022-09-14T10:41:41.381Z,58.2
2022-09-14T10:42:42.394Z,58.5
2022-09-14T10:43:43.384Z,58.6
2022-09-14T10:44:44.435Z,58.9
2022-09-14T10:45:45.395Z,59.2
2022-09-14T10:46:46.522Z,58.6
2022-09-14T10:47:47.463Z,58.6
2022-09-14T10:48:48.522Z,58.7
2022-09-14T10:49:49.456Z,58.7
2022-09-14T10:50:50.502Z,58.5
2022-09-14T10:51:51.402Z,58.5
2022-09-14T10:52:52.427Z,58.4
2022-09-14T10:53:53.433Z,57.8
2022-09-14T10:54:54.538Z,57.7
2022-09-14T10:55:55.504Z,57.9
2022-09-14T10:56:56.498Z,58.2
2022-09-14T10:57:57.416Z,58.5
2022-09-14T10:58:58.435Z,58.1
2022-09-14T10:59:59.449Z,57.9
2022-09-14T11:01:00.434Z,57.7
2022-09-14T11:02:01.607Z,57
2022-09-14T11:03:02.683Z,56.7
2022-09-14T11:04:04.448Z,56.5
2022-09-14T11:05:05.779Z,55.6
2022-09-14T11:06:07.419Z,55.2
2022-09-14T11:07:08.463Z,54.7
2022-09-14T11:08:09.425Z,53.7
2022-09-14T11:09:10.430Z,52.8
2022-09-14T11:10:11.761Z,52.5
2022-09-14T11:11:12.564Z,52.4
2022-09-14T11:12:13.446Z,52.1
2022-09-14T11:13:14.513Z,52.1
2022-09-14T11:14:15.465Z,52
2022-09-14T11:15:16.493Z,51.9
2022-09-14T11:16:17.592Z,52.3
2022-09-14T11:17:18.503Z,52.7
2022-09-14T11:18:19.433Z,53.1
2022-09-14T11:19:20.447Z,53.5
2022-09-14T11:20:21.494Z,53.7
2022-09-14T11:21:22.565Z,54
2022-09-14T11:22:24.479Z,54.5
2022-09-14T11:23:25.476Z,54.8
2022-09-14T11:24:26.454Z,55
2022-09-14T11:25:27.505Z,55
2022-09-14T11:26:28.745Z,54.8
2022-09-14T11:27:30.482Z,54.6
2022-09-14T11:28:31.460Z,54.5
2022-09-14T11:29:32.470Z,54.9
2022-09-14T11:30:33.457Z,55.7
2022-09-14T11:31:34.529Z,55.8
2022-09-14T11:32:35.496Z,55.8
2022-09-14T11:33:36.542Z,55.8
2022-09-14T11:34:37.484Z,56.1
2022-09-14T11:35:38.554Z,56.3
2022-09-14T11:36:39.481Z,56.8
2022-09-14T11:37:40.500Z,57.2
2022-09-14T11:38:41.530Z,57.3
2022-09-14T11:39:42.572Z,57.1
2022-09-14T11:40:43.462Z,56.7
2022-09-14T11:41:44.507Z,56.2
2022-09-14T11:42:45.655Z,56.4
2022-09-14T11:43:47.506Z,56.3
2022-09-14T11:44:48.494Z,56.5
2022-09-14T11:45:49.677Z,56.3
2022-09-14T11:46:50.578Z,55.5
2022-09-14T11:47:51.498Z,55.8
2022-09-14T11:48:52.649Z,56.1
2022-09-14T11:49:53.505Z,56
2022-09-14T11:50:54.515Z,56.2
2022-09-14T11:51:55.491Z,55.6
2022-09-14T11:52:56.505Z,55.3
2022-09-14T11:53:57.556Z,55.3
2022-09-14T11:54:58.520Z,55.1
2022-09-14T11:55:59.504Z,54.9
2022-09-14T11:57:00.536Z,55
2022-09-14T11:58:01.515Z,55.3
2022-09-14T11:59:02.686Z,55.7
2022-09-14T12:00:04.562Z,55.7
2022-09-14T12:01:05.503Z,55.8
2022-09-14T12:02:06.570Z,55.4
2022-09-14T12:03:07.680Z,54.8
2022-09-14T12:04:08.712Z,54.7
2022-09-14T12:05:09.567Z,54.2
2022-09-14T12:06:10.566Z,53.9
2022-09-14T12:07:11.548Z,53.7
2022-09-14T12:08:12.576Z,53.4
2022-09-14T12:09:13.617Z,52.8
2022-09-14T12:10:14.573Z,52.7
2022-09-14T12:11:15.529Z,53
2022-09-14T12:12:16.653Z,53.3
2022-09-14T12:13:17.637Z,53.6
2022-09-14T12:14:18.607Z,53.9
2022-09-14T12:15:19.554Z,54.3
2022-09-14T12:16:20.652Z,54.7
2022-09-14T12:18:22.535Z,54.1
2022-09-14T12:19:23.606Z,53.6
2022-09-14T12:20:24.596Z,53.7
2022-09-14T12:21:25.565Z,54
2022-09-14T12:22:26.557Z,54.3
2022-09-14T12:23:27.554Z,54.1
2022-09-14T12:24:28.607Z,54
2022-09-14T12:25:29.607Z,53.6
2022-09-14T12:26:30.568Z,53.1
2022-09-14T12:27:31.567Z,52.8
2022-09-14T12:28:32.703Z,52.8
2022-09-14T12:29:34.592Z,52.7
2022-09-14T12:30:39.889Z,52.7
2022-09-14T12:31:36.909Z,52.1
2022-09-14T12:32:38.607Z,52
2022-09-14T12:33:39.586Z,51.6
2022-09-14T12:34:40.791Z,51.3
2022-09-14T12:35:42.564Z,51.3
2022-09-14T12:36:43.681Z,51.2
2022-09-14T12:37:44.658Z,51.4
2022-09-14T12:38:45.626Z,51.4
2022-09-14T12:39:46.727Z,51.6
2022-09-14T12:40:48.586Z,52.1
2022-09-14T12:41:49.682Z,53
2022-09-14T12:42:50.619Z,53.8
2022-09-14T12:43:51.672Z,54.2
2022-09-14T12:44:52.617Z,54.1
2022-09-14T12:45:53.634Z,54.8
2022-09-14T12:46:54.690Z,54.4
2022-09-14T12:47:55.719Z,54.1
2022-09-14T12:48:57.616Z,53.9
2022-09-14T12:49:58.630Z,53.5
2022-09-14T12:50:59.795Z,53.4
2022-09-14T12:52:01.666Z,53.7
2022-09-14T12:53:02.655Z,54
2022-09-14T12:54:03.773Z,54
2022-09-14T12:55:05.730Z,53.6
2022-09-14T12:56:07.625Z,53.4
2022-09-14T12:57:08.674Z,52.9
2022-09-14T12:58:09.693Z,52.7
2022-09-14T12:59:10.672Z,52
2022-09-14T13:00:11.663Z,51.9
2022-09-14T13:01:12.785Z,51.8
2022-09-14T13:02:13.883Z,52.1
2022-09-14T13:03:15.662Z,52.2
2022-09-14T13:04:16.635Z,52.5
2022-09-14T13:05:17.634Z,52.5
2022-09-14T13:06:18.632Z,52.8
2022-09-14T13:07:19.682Z,53
2022-09-14T13:08:20.932Z,53.7
2022-09-14T13:09:22.758Z,54
2022-09-14T13:10:24.651Z,53.9
2022-09-14T13:11:25.623Z,53.4
2022-09-14T13:12:26.674Z,53.1
2022-09-14T13:13:27.678Z,53.1
2022-09-14T13:14:28.637Z,53.1
2022-09-14T13:15:29.767Z,53
2022-09-14T13:16:30.786Z,53.2
2022-09-14T13:17:32.686Z,52.7
2022-09-14T13:18:33.999Z,52.7
2022-09-14T13:19:35.654Z,52.5
2022-09-14T13:20:36.680Z,52.4
2022-09-14T13:21:37.667Z,52.6
2022-09-14T13:22:38.654Z,52.7
2022-09-14T13:23:39.653Z,53
2022-09-14T13:24:40.829Z,53.2
2022-09-14T13:25:42.717Z,53.2
2022-09-14T13:26:43.791Z,53.4
2022-09-14T13:27:46.019Z,53.2
2022-09-14T13:28:47.822Z,53
2022-09-14T13:29:49.681Z,52.7
2022-09-14T13:30:50.780Z,52.5
2022-09-14T13:31:51.679Z,52.4
2022-09-14T13:32:52.739Z,52.2
2022-09-14T13:33:53.853Z,52.3
2022-09-14T13:34:55.664Z,51.9
2022-09-14T13:35:56.811Z,51.7
2022-09-14T13:36:58.686Z,51.8
2022-09-14T13:37:59.685Z,52.1
2022-09-14T13:39:00.671Z,52.3
2022-09-14T13:40:01.742Z,51.8